sensor_id;sensor_type;location;lat;lon;timestamp;P1;durP1;ratioP1;P2;durP2;ratioP2
72060;SDS011;59925;52.136;5.420;2024-02-26T00:00:30;3.08;;;2.13;;
72060;SDS011;59925;52.136;5.420;2024-02-26T00:02:57;3.72;;;2.38;;
72060;SDS011;59925;52.136;5.420;2024-02-26T00:05:24;3.93;;;2.43;;
72060;SDS011;59925;52.136;5.420;2024-02-26T00:07:50;4.85;;;2.20;;
72060;SDS011;59925;52.136;5.420;2024-02-26T00:10:17;5.30;;;2.50;;
72060;SDS011;59925;52.136;5.420;2024-02-26T00:12:45;3.72;;;2.33;;
72060;SDS011;59925;52.136;5.420;2024-02-26T00:15:12;4.05;;;2.63;;
72060;SDS011;59925;52.136;5.420;2024-02-26T00:17:39;3.67;;;2.40;;
72060;SDS011;59925;52.136;5.420;2024-02-26T00:20:06;3.97;;;2.20;;
72060;SDS011;59925;52.136;5.420;2024-02-26T00:22:36;4.35;;;2.55;;
72060;SDS011;59925;52.136;5.420;2024-02-26T00:25:03;4.70;;;2.70;;
72060;SDS011;59925;52.136;5.420;2024-02-26T00:27:30;6.55;;;3.30;;
72060;SDS011;59925;52.136;5.420;2024-02-26T00:29:57;4.27;;;2.70;;
72060;SDS011;59925;52.136;5.420;2024-02-26T00:32:24;5.45;;;3.17;;
72060;SDS011;59925;52.136;5.420;2024-02-26T00:34:50;4.72;;;2.78;;
72060;SDS011;59925;52.136;5.420;2024-02-26T00:37:17;4.78;;;3.20;;
72060;SDS011;59925;52.136;5.420;2024-02-26T00:39:43;4.95;;;3.22;;
72060;SDS011;59925;52.136;5.420;2024-02-26T00:42:10;5.77;;;3.00;;
72060;SDS011;59925;52.136;5.420;2024-02-26T00:44:37;5.55;;;2.97;;
72060;SDS011;59925;52.136;5.420;2024-02-26T00:47:04;5.25;;;3.10;;
72060;SDS011;59925;52.136;5.420;2024-02-26T00:49:30;4.38;;;2.92;;
72060;SDS011;59925;52.136;5.420;2024-02-26T00:51:57;4.65;;;3.10;;
72060;SDS011;59925;52.136;5.420;2024-02-26T00:54:23;5.10;;;3.30;;
72060;SDS011;59925;52.136;5.420;2024-02-26T00:56:50;3.90;;;2.83;;
72060;SDS011;59925;52.136;5.420;2024-02-26T00:59:17;4.28;;;2.92;;
72060;SDS011;59925;52.136;5.420;2024-02-26T01:01:43;6.30;;;3.00;;
72060;SDS011;59925;52.136;5.420;2024-02-26T01:04:10;6.57;;;3.67;;
72060;SDS011;59925;52.136;5.420;2024-02-26T01:06:36;6.07;;;3.33;;
72060;SDS011;59925;52.136;5.420;2024-02-26T01:09:03;4.75;;;3.30;;
72060;SDS011;59925;52.136;5.420;2024-02-26T01:11:30;6.03;;;3.58;;
72060;SDS011;59925;52.136;5.420;2024-02-26T01:13:56;4.13;;;2.90;;
72060;SDS011;59925;52.136;5.420;2024-02-26T01:16:23;6.22;;;3.08;;
72060;SDS011;59925;52.136;5.420;2024-02-26T01:18:50;3.97;;;3.13;;
72060;SDS011;59925;52.136;5.420;2024-02-26T01:21:17;5.35;;;3.53;;
72060;SDS011;59925;52.136;5.420;2024-02-26T01:23:44;5.70;;;3.60;;
72060;SDS011;59925;52.136;5.420;2024-02-26T01:26:10;5.00;;;3.22;;
72060;SDS011;59925;52.136;5.420;2024-02-26T01:28:37;3.92;;;3.00;;
72060;SDS011;59925;52.136;5.420;2024-02-26T01:31:04;4.80;;;2.93;;
72060;SDS011;59925;52.136;5.420;2024-02-26T01:33:33;4.63;;;3.00;;
72060;SDS011;59925;52.136;5.420;2024-02-26T01:36:00;4.30;;;3.47;;
72060;SDS011;59925;52.136;5.420;2024-02-26T01:38:27;5.57;;;3.47;;
72060;SDS011;59925;52.136;5.420;2024-02-26T01:40:54;5.28;;;3.17;;
72060;SDS011;59925;52.136;5.420;2024-02-26T01:43:20;4.57;;;3.10;;
72060;SDS011;59925;52.136;5.420;2024-02-26T01:45:47;5.90;;;3.05;;
72060;SDS011;59925;52.136;5.420;2024-02-26T01:48:14;4.65;;;3.42;;
72060;SDS011;59925;52.136;5.420;2024-02-26T01:50:40;6.70;;;3.72;;
72060;SDS011;59925;52.136;5.420;2024-02-26T01:53:07;6.63;;;3.53;;
72060;SDS011;59925;52.136;5.420;2024-02-26T01:55:35;6.67;;;3.97;;
72060;SDS011;59925;52.136;5.420;2024-02-26T01:58:02;5.18;;;2.85;;
72060;SDS011;59925;52.136;5.420;2024-02-26T02:00:29;5.22;;;3.20;;
72060;SDS011;59925;52.136;5.420;2024-02-26T02:02:56;5.82;;;3.42;;
72060;SDS011;59925;52.136;5.420;2024-02-26T02:05:22;5.53;;;3.33;;
72060;SDS011;59925;52.136;5.420;2024-02-26T02:07:50;4.90;;;3.10;;
72060;SDS011;59925;52.136;5.420;2024-02-26T02:10:19;5.13;;;3.50;;
72060;SDS011;59925;52.136;5.420;2024-02-26T02:12:49;5.03;;;3.40;;
72060;SDS011;59925;52.136;5.420;2024-02-26T02:15:16;6.65;;;3.42;;
72060;SDS011;59925;52.136;5.420;2024-02-26T02:17:43;5.70;;;3.63;;
72060;SDS011;59925;52.136;5.420;2024-02-26T02:20:14;5.80;;;3.47;;
72060;SDS011;59925;52.136;5.420;2024-02-26T02:22:45;5.75;;;3.42;;
72060;SDS011;59925;52.136;5.420;2024-02-26T02:25:12;5.88;;;3.15;;
72060;SDS011;59925;52.136;5.420;2024-02-26T02:27:39;6.63;;;3.85;;
72060;SDS011;59925;52.136;5.420;2024-02-26T02:30:07;5.85;;;3.40;;
72060;SDS011;59925;52.136;5.420;2024-02-26T02:32:36;7.77;;;3.50;;
72060;SDS011;59925;52.136;5.420;2024-02-26T02:35:06;5.13;;;3.03;;
72060;SDS011;59925;52.136;5.420;2024-02-26T02:37:33;4.85;;;3.00;;
72060;SDS011;59925;52.136;5.420;2024-02-26T02:40:00;5.88;;;3.20;;
72060;SDS011;59925;52.136;5.420;2024-02-26T02:42:26;5.57;;;3.28;;
72060;SDS011;59925;52.136;5.420;2024-02-26T02:44:53;5.57;;;3.20;;
72060;SDS011;59925;52.136;5.420;2024-02-26T02:47:20;5.18;;;2.95;;
72060;SDS011;59925;52.136;5.420;2024-02-26T02:49:46;5.72;;;3.08;;
72060;SDS011;59925;52.136;5.420;2024-02-26T02:52:13;4.78;;;2.85;;
72060;SDS011;59925;52.136;5.420;2024-02-26T02:54:39;6.70;;;3.72;;
72060;SDS011;59925;52.136;5.420;2024-02-26T02:57:06;6.23;;;3.30;;
72060;SDS011;59925;52.136;5.420;2024-02-26T02:59:33;5.97;;;3.20;;
72060;SDS011;59925;52.136;5.420;2024-02-26T03:02:00;5.55;;;3.45;;
72060;SDS011;59925;52.136;5.420;2024-02-26T03:04:27;4.97;;;2.65;;
72060;SDS011;59925;52.136;5.420;2024-02-26T03:06:54;5.70;;;3.80;;
72060;SDS011;59925;52.136;5.420;2024-02-26T03:09:20;7.00;;;3.30;;
72060;SDS011;59925;52.136;5.420;2024-02-26T03:11:47;6.32;;;3.47;;
72060;SDS011;59925;52.136;5.420;2024-02-26T03:14:14;6.57;;;3.70;;
72060;SDS011;59925;52.136;5.420;2024-02-26T03:16:40;5.90;;;3.38;;
72060;SDS011;59925;52.136;5.420;2024-02-26T03:19:07;7.10;;;4.32;;
72060;SDS011;59925;52.136;5.420;2024-02-26T03:21:34;5.90;;;3.40;;
72060;SDS011;59925;52.136;5.420;2024-02-26T03:24:00;6.00;;;3.50;;
72060;SDS011;59925;52.136;5.420;2024-02-26T03:26:27;8.27;;;4.18;;
72060;SDS011;59925;52.136;5.420;2024-02-26T03:28:54;7.88;;;3.45;;
72060;SDS011;59925;52.136;5.420;2024-02-26T03:31:20;8.80;;;3.70;;
72060;SDS011;59925;52.136;5.420;2024-02-26T03:33:47;8.47;;;4.00;;
72060;SDS011;59925;52.136;5.420;2024-02-26T03:36:14;7.43;;;4.35;;
72060;SDS011;59925;52.136;5.420;2024-02-26T03:38:41;6.60;;;3.72;;
72060;SDS011;59925;52.136;5.420;2024-02-26T03:41:08;7.00;;;4.10;;
72060;SDS011;59925;52.136;5.420;2024-02-26T03:43:35;6.88;;;4.18;;
72060;SDS011;59925;52.136;5.420;2024-02-26T03:46:01;7.83;;;4.00;;
72060;SDS011;59925;52.136;5.420;2024-02-26T03:48:28;7.18;;;4.15;;
72060;SDS011;59925;52.136;5.420;2024-02-26T03:50:55;7.55;;;4.22;;
72060;SDS011;59925;52.136;5.420;2024-02-26T03:53:21;8.68;;;4.07;;
72060;SDS011;59925;52.136;5.420;2024-02-26T03:55:48;8.45;;;4.55;;
72060;SDS011;59925;52.136;5.420;2024-02-26T03:58:15;8.23;;;4.60;;
72060;SDS011;59925;52.136;5.420;2024-02-26T04:00:42;8.45;;;4.13;;
72060;SDS011;59925;52.136;5.420;2024-02-26T04:03:09;6.97;;;4.00;;
72060;SDS011;59925;52.136;5.420;2024-02-26T04:05:36;7.70;;;4.28;;
72060;SDS011;59925;52.136;5.420;2024-02-26T04:08:02;7.45;;;4.38;;
72060;SDS011;59925;52.136;5.420;2024-02-26T04:10:30;8.20;;;4.50;;
72060;SDS011;59925;52.136;5.420;2024-02-26T04:12:57;6.80;;;3.67;;
72060;SDS011;59925;52.136;5.420;2024-02-26T04:15:23;6.93;;;4.03;;
72060;SDS011;59925;52.136;5.420;2024-02-26T04:17:50;6.70;;;3.70;;
72060;SDS011;59925;52.136;5.420;2024-02-26T04:20:17;7.65;;;4.57;;
72060;SDS011;59925;52.136;5.420;2024-02-26T04:22:43;7.67;;;4.17;;
72060;SDS011;59925;52.136;5.420;2024-02-26T04:25:11;6.25;;;3.72;;
72060;SDS011;59925;52.136;5.420;2024-02-26T04:27:37;8.13;;;4.45;;
72060;SDS011;59925;52.136;5.420;2024-02-26T04:30:05;6.95;;;4.03;;
72060;SDS011;59925;52.136;5.420;2024-02-26T04:32:32;8.05;;;3.97;;
72060;SDS011;59925;52.136;5.420;2024-02-26T04:35:01;9.93;;;4.20;;
72060;SDS011;59925;52.136;5.420;2024-02-26T04:37:28;8.15;;;4.63;;
72060;SDS011;59925;52.136;5.420;2024-02-26T04:39:58;9.43;;;3.72;;
72060;SDS011;59925;52.136;5.420;2024-02-26T04:42:25;7.40;;;4.53;;
72060;SDS011;59925;52.136;5.420;2024-02-26T04:44:52;6.43;;;3.92;;
72060;SDS011;59925;52.136;5.420;2024-02-26T04:47:19;6.63;;;3.77;;
72060;SDS011;59925;52.136;5.420;2024-02-26T04:49:45;5.93;;;3.35;;
72060;SDS011;59925;52.136;5.420;2024-02-26T04:52:12;7.28;;;4.07;;
72060;SDS011;59925;52.136;5.420;2024-02-26T04:54:38;8.02;;;4.05;;
72060;SDS011;59925;52.136;5.420;2024-02-26T04:57:05;7.15;;;3.92;;
72060;SDS011;59925;52.136;5.420;2024-02-26T04:59:31;8.27;;;4.27;;
72060;SDS011;59925;52.136;5.420;2024-02-26T05:01:58;7.28;;;4.18;;
72060;SDS011;59925;52.136;5.420;2024-02-26T05:04:24;9.57;;;4.28;;
72060;SDS011;59925;52.136;5.420;2024-02-26T05:06:51;6.97;;;3.85;;
72060;SDS011;59925;52.136;5.420;2024-02-26T05:09:17;8.52;;;4.20;;
72060;SDS011;59925;52.136;5.420;2024-02-26T05:11:44;8.40;;;4.10;;
72060;SDS011;59925;52.136;5.420;2024-02-26T05:14:11;8.30;;;4.22;;
72060;SDS011;59925;52.136;5.420;2024-02-26T05:16:37;7.93;;;3.97;;
72060;SDS011;59925;52.136;5.420;2024-02-26T05:19:04;8.18;;;4.38;;
72060;SDS011;59925;52.136;5.420;2024-02-26T05:21:32;7.90;;;4.40;;
72060;SDS011;59925;52.136;5.420;2024-02-26T05:24:00;8.47;;;4.53;;
72060;SDS011;59925;52.136;5.420;2024-02-26T05:26:27;8.70;;;4.13;;
72060;SDS011;59925;52.136;5.420;2024-02-26T05:28:53;7.93;;;4.40;;
72060;SDS011;59925;52.136;5.420;2024-02-26T05:31:26;9.60;;;4.72;;
72060;SDS011;59925;52.136;5.420;2024-02-26T05:33:52;8.57;;;5.13;;
72060;SDS011;59925;52.136;5.420;2024-02-26T05:36:20;10.03;;;5.30;;
72060;SDS011;59925;52.136;5.420;2024-02-26T05:38:48;9.52;;;5.20;;
72060;SDS011;59925;52.136;5.420;2024-02-26T05:41:15;7.78;;;4.47;;
72060;SDS011;59925;52.136;5.420;2024-02-26T05:43:43;10.02;;;5.25;;
72060;SDS011;59925;52.136;5.420;2024-02-26T05:46:09;9.27;;;4.55;;
72060;SDS011;59925;52.136;5.420;2024-02-26T05:48:36;8.60;;;5.27;;
72060;SDS011;59925;52.136;5.420;2024-02-26T05:51:03;10.35;;;5.10;;
72060;SDS011;59925;52.136;5.420;2024-02-26T05:53:30;9.90;;;5.63;;
72060;SDS011;59925;52.136;5.420;2024-02-26T05:55:57;9.63;;;4.63;;
72060;SDS011;59925;52.136;5.420;2024-02-26T05:58:23;10.18;;;5.65;;
72060;SDS011;59925;52.136;5.420;2024-02-26T06:00:50;9.93;;;5.10;;
72060;SDS011;59925;52.136;5.420;2024-02-26T06:03:16;10.35;;;5.22;;
72060;SDS011;59925;52.136;5.420;2024-02-26T06:05:43;8.50;;;5.43;;
72060;SDS011;59925;52.136;5.420;2024-02-26T06:08:10;10.32;;;5.30;;
72060;SDS011;59925;52.136;5.420;2024-02-26T06:10:36;10.40;;;5.78;;
72060;SDS011;59925;52.136;5.420;2024-02-26T06:13:03;10.83;;;5.57;;
72060;SDS011;59925;52.136;5.420;2024-02-26T06:15:30;12.95;;;5.60;;
72060;SDS011;59925;52.136;5.420;2024-02-26T06:17:56;12.95;;;5.55;;
72060;SDS011;59925;52.136;5.420;2024-02-26T06:20:23;12.38;;;5.28;;
72060;SDS011;59925;52.136;5.420;2024-02-26T06:22:50;9.95;;;4.90;;
72060;SDS011;59925;52.136;5.420;2024-02-26T06:25:17;10.77;;;5.50;;
72060;SDS011;59925;52.136;5.420;2024-02-26T06:27:44;10.30;;;5.10;;
72060;SDS011;59925;52.136;5.420;2024-02-26T06:30:10;13.63;;;6.07;;
72060;SDS011;59925;52.136;5.420;2024-02-26T06:32:37;12.77;;;5.68;;
72060;SDS011;59925;52.136;5.420;2024-02-26T06:35:04;12.88;;;5.75;;
72060;SDS011;59925;52.136;5.420;2024-02-26T06:37:34;12.20;;;5.20;;
72060;SDS011;59925;52.136;5.420;2024-02-26T06:40:01;11.15;;;5.35;;
72060;SDS011;59925;52.136;5.420;2024-02-26T06:42:32;9.90;;;5.03;;
72060;SDS011;59925;52.136;5.420;2024-02-26T06:44:59;12.30;;;5.95;;
72060;SDS011;59925;52.136;5.420;2024-02-26T06:47:26;11.43;;;5.78;;
72060;SDS011;59925;52.136;5.420;2024-02-26T06:49:52;14.47;;;6.70;;
72060;SDS011;59925;52.136;5.420;2024-02-26T06:52:20;11.73;;;5.60;;
72060;SDS011;59925;52.136;5.420;2024-02-26T06:54:46;12.38;;;6.57;;
72060;SDS011;59925;52.136;5.420;2024-02-26T06:57:14;15.43;;;6.53;;
72060;SDS011;59925;52.136;5.420;2024-02-26T06:59:41;14.02;;;6.82;;
72060;SDS011;59925;52.136;5.420;2024-02-26T07:02:15;13.67;;;7.20;;
72060;SDS011;59925;52.136;5.420;2024-02-26T07:04:42;16.20;;;7.13;;
72060;SDS011;59925;52.136;5.420;2024-02-26T07:07:09;14.10;;;7.00;;
72060;SDS011;59925;52.136;5.420;2024-02-26T07:09:37;17.50;;;8.00;;
72060;SDS011;59925;52.136;5.420;2024-02-26T07:12:04;14.32;;;7.07;;
72060;SDS011;59925;52.136;5.420;2024-02-26T07:14:30;16.27;;;7.60;;
72060;SDS011;59925;52.136;5.420;2024-02-26T07:16:58;13.88;;;7.00;;
72060;SDS011;59925;52.136;5.420;2024-02-26T07:19:25;15.82;;;7.82;;
72060;SDS011;59925;52.136;5.420;2024-02-26T07:21:52;14.45;;;7.38;;
72060;SDS011;59925;52.136;5.420;2024-02-26T07:24:18;14.82;;;7.18;;
72060;SDS011;59925;52.136;5.420;2024-02-26T07:26:45;17.47;;;7.93;;
72060;SDS011;59925;52.136;5.420;2024-02-26T07:29:11;19.90;;;8.07;;
72060;SDS011;59925;52.136;5.420;2024-02-26T07:31:38;17.17;;;7.82;;
72060;SDS011;59925;52.136;5.420;2024-02-26T07:34:04;19.13;;;9.10;;
72060;SDS011;59925;52.136;5.420;2024-02-26T07:36:31;16.60;;;7.88;;
72060;SDS011;59925;52.136;5.420;2024-02-26T07:38:58;18.70;;;7.83;;
72060;SDS011;59925;52.136;5.420;2024-02-26T07:41:24;19.20;;;8.68;;
72060;SDS011;59925;52.136;5.420;2024-02-26T07:43:51;15.68;;;8.55;;
72060;SDS011;59925;52.136;5.420;2024-02-26T07:46:18;19.52;;;9.13;;
72060;SDS011;59925;52.136;5.420;2024-02-26T07:48:45;19.80;;;9.65;;
72060;SDS011;59925;52.136;5.420;2024-02-26T07:51:12;18.37;;;8.60;;
72060;SDS011;59925;52.136;5.420;2024-02-26T07:53:40;17.27;;;8.25;;
72060;SDS011;59925;52.136;5.420;2024-02-26T07:56:07;16.92;;;8.52;;
72060;SDS011;59925;52.136;5.420;2024-02-26T07:58:34;20.55;;;9.95;;
72060;SDS011;59925;52.136;5.420;2024-02-26T08:01:00;18.25;;;8.85;;
72060;SDS011;59925;52.136;5.420;2024-02-26T08:03:27;19.73;;;9.37;;
72060;SDS011;59925;52.136;5.420;2024-02-26T08:05:54;15.93;;;8.60;;
72060;SDS011;59925;52.136;5.420;2024-02-26T08:08:21;17.90;;;8.93;;
72060;SDS011;59925;52.136;5.420;2024-02-26T08:10:48;16.33;;;8.45;;
72060;SDS011;59925;52.136;5.420;2024-02-26T08:13:14;16.00;;;8.80;;
72060;SDS011;59925;52.136;5.420;2024-02-26T08:15:41;17.60;;;8.47;;
72060;SDS011;59925;52.136;5.420;2024-02-26T08:18:08;17.52;;;9.30;;
72060;SDS011;59925;52.136;5.420;2024-02-26T08:20:35;20.55;;;9.48;;
72060;SDS011;59925;52.136;5.420;2024-02-26T08:23:01;17.13;;;7.97;;
72060;SDS011;59925;52.136;5.420;2024-02-26T08:25:28;14.70;;;7.88;;
72060;SDS011;59925;52.136;5.420;2024-02-26T08:27:55;14.83;;;8.23;;
72060;SDS011;59925;52.136;5.420;2024-02-26T08:30:21;15.48;;;7.63;;
72060;SDS011;59925;52.136;5.420;2024-02-26T08:32:48;15.07;;;7.68;;
72060;SDS011;59925;52.136;5.420;2024-02-26T08:35:18;15.20;;;7.47;;
72060;SDS011;59925;52.136;5.420;2024-02-26T08:37:45;15.05;;;8.15;;
72060;SDS011;59925;52.136;5.420;2024-02-26T08:40:13;12.80;;;6.67;;
72060;SDS011;59925;52.136;5.420;2024-02-26T08:42:40;12.52;;;6.53;;
72060;SDS011;59925;52.136;5.420;2024-02-26T08:45:07;11.82;;;6.47;;
72060;SDS011;59925;52.136;5.420;2024-02-26T08:47:34;11.30;;;6.43;;
72060;SDS011;59925;52.136;5.420;2024-02-26T08:50:01;10.63;;;6.07;;
72060;SDS011;59925;52.136;5.420;2024-02-26T08:52:28;12.43;;;6.73;;
72060;SDS011;59925;52.136;5.420;2024-02-26T08:54:55;10.30;;;5.43;;
72060;SDS011;59925;52.136;5.420;2024-02-26T08:57:21;12.13;;;6.22;;
72060;SDS011;59925;52.136;5.420;2024-02-26T08:59:48;10.13;;;5.60;;
72060;SDS011;59925;52.136;5.420;2024-02-26T09:02:15;10.05;;;5.57;;
72060;SDS011;59925;52.136;5.420;2024-02-26T09:04:42;9.63;;;6.07;;
72060;SDS011;59925;52.136;5.420;2024-02-26T09:07:09;10.10;;;5.40;;
72060;SDS011;59925;52.136;5.420;2024-02-26T09:09:35;10.60;;;5.53;;
72060;SDS011;59925;52.136;5.420;2024-02-26T09:12:02;9.27;;;5.45;;
72060;SDS011;59925;52.136;5.420;2024-02-26T09:14:30;12.18;;;5.63;;
72060;SDS011;59925;52.136;5.420;2024-02-26T09:16:56;12.13;;;5.27;;
72060;SDS011;59925;52.136;5.420;2024-02-26T09:19:23;9.05;;;4.68;;
72060;SDS011;59925;52.136;5.420;2024-02-26T09:21:52;8.05;;;4.43;;
72060;SDS011;59925;52.136;5.420;2024-02-26T09:24:21;7.53;;;4.25;;
72060;SDS011;59925;52.136;5.420;2024-02-26T09:26:47;7.72;;;4.68;;
72060;SDS011;59925;52.136;5.420;2024-02-26T09:29:14;8.97;;;5.27;;
72060;SDS011;59925;52.136;5.420;2024-02-26T09:31:40;11.48;;;4.78;;
72060;SDS011;59925;52.136;5.420;2024-02-26T09:34:07;9.15;;;4.75;;
72060;SDS011;59925;52.136;5.420;2024-02-26T09:36:34;7.65;;;4.57;;
72060;SDS011;59925;52.136;5.420;2024-02-26T09:39:01;7.22;;;4.05;;
72060;SDS011;59925;52.136;5.420;2024-02-26T09:41:29;8.53;;;4.23;;
72060;SDS011;59925;52.136;5.420;2024-02-26T09:43:56;7.95;;;4.15;;
72060;SDS011;59925;52.136;5.420;2024-02-26T09:46:24;9.15;;;4.30;;
72060;SDS011;59925;52.136;5.420;2024-02-26T09:48:51;7.57;;;3.80;;
72060;SDS011;59925;52.136;5.420;2024-02-26T09:51:19;7.85;;;3.65;;
72060;SDS011;59925;52.136;5.420;2024-02-26T09:53:47;8.33;;;3.87;;
72060;SDS011;59925;52.136;5.420;2024-02-26T09:56:17;6.82;;;3.75;;
72060;SDS011;59925;52.136;5.420;2024-02-26T09:58:45;8.38;;;4.30;;
72060;SDS011;59925;52.136;5.420;2024-02-26T10:01:18;9.07;;;3.30;;
72060;SDS011;59925;52.136;5.420;2024-02-26T10:03:48;7.47;;;3.85;;
72060;SDS011;59925;52.136;5.420;2024-02-26T10:06:21;7.23;;;3.93;;
72060;SDS011;59925;52.136;5.420;2024-02-26T10:08:48;7.75;;;3.90;;
72060;SDS011;59925;52.136;5.420;2024-02-26T10:11:15;7.95;;;4.32;;
72060;SDS011;59925;52.136;5.420;2024-02-26T10:13:43;7.43;;;3.22;;
72060;SDS011;59925;52.136;5.420;2024-02-26T10:16:09;6.70;;;3.67;;
72060;SDS011;59925;52.136;5.420;2024-02-26T10:18:49;7.67;;;3.93;;
72060;SDS011;59925;52.136;5.420;2024-02-26T10:21:25;7.28;;;3.72;;
72060;SDS011;59925;52.136;5.420;2024-02-26T10:23:51;6.68;;;3.45;;
72060;SDS011;59925;52.136;5.420;2024-02-26T10:26:19;5.90;;;3.35;;
72060;SDS011;59925;52.136;5.420;2024-02-26T10:28:46;7.70;;;3.83;;
72060;SDS011;59925;52.136;5.420;2024-02-26T10:31:17;6.70;;;3.63;;
72060;SDS011;59925;52.136;5.420;2024-02-26T10:33:44;6.85;;;3.40;;
72060;SDS011;59925;52.136;5.420;2024-02-26T10:36:12;7.22;;;3.35;;
72060;SDS011;59925;52.136;5.420;2024-02-26T10:38:38;6.93;;;3.40;;
72060;SDS011;59925;52.136;5.420;2024-02-26T10:41:13;9.15;;;3.92;;
72060;SDS011;59925;52.136;5.420;2024-02-26T10:43:42;6.87;;;3.60;;
72060;SDS011;59925;52.136;5.420;2024-02-26T10:46:09;7.85;;;3.50;;
72060;SDS011;59925;52.136;5.420;2024-02-26T10:48:36;6.63;;;3.40;;
72060;SDS011;59925;52.136;5.420;2024-02-26T10:51:05;7.00;;;3.05;;
72060;SDS011;59925;52.136;5.420;2024-02-26T10:53:35;7.10;;;3.70;;
72060;SDS011;59925;52.136;5.420;2024-02-26T10:56:03;5.73;;;3.73;;
72060;SDS011;59925;52.136;5.420;2024-02-26T10:58:33;8.40;;;3.42;;
72060;SDS011;59925;52.136;5.420;2024-02-26T11:01:01;7.30;;;3.47;;
72060;SDS011;59925;52.136;5.420;2024-02-26T11:03:29;7.50;;;3.58;;
72060;SDS011;59925;52.136;5.420;2024-02-26T11:05:58;5.78;;;3.35;;
72060;SDS011;59925;52.136;5.420;2024-02-26T11:08:27;6.67;;;3.40;;
72060;SDS011;59925;52.136;5.420;2024-02-26T11:10:54;7.03;;;3.80;;
72060;SDS011;59925;52.136;5.420;2024-02-26T11:13:23;7.68;;;3.90;;
72060;SDS011;59925;52.136;5.420;2024-02-26T11:15:55;8.43;;;3.92;;
72060;SDS011;59925;52.136;5.420;2024-02-26T11:18:23;6.15;;;3.30;;
72060;SDS011;59925;52.136;5.420;2024-02-26T11:20:54;7.33;;;3.33;;
72060;SDS011;59925;52.136;5.420;2024-02-26T11:23:23;9.32;;;3.60;;
72060;SDS011;59925;52.136;5.420;2024-02-26T11:25:50;6.55;;;3.17;;
72060;SDS011;59925;52.136;5.420;2024-02-26T11:28:20;5.63;;;3.30;;
72060;SDS011;59925;52.136;5.420;2024-02-26T11:30:50;7.30;;;3.50;;
72060;SDS011;59925;52.136;5.420;2024-02-26T11:33:18;7.27;;;4.00;;
72060;SDS011;59925;52.136;5.420;2024-02-26T11:35:46;8.57;;;3.38;;
72060;SDS011;59925;52.136;5.420;2024-02-26T11:38:17;6.50;;;3.25;;
72060;SDS011;59925;52.136;5.420;2024-02-26T11:40:47;6.82;;;3.70;;
72060;SDS011;59925;52.136;5.420;2024-02-26T11:43:14;5.93;;;3.22;;
72060;SDS011;59925;52.136;5.420;2024-02-26T11:48:16;8.95;;;3.60;;
72060;SDS011;59925;52.136;5.420;2024-02-26T11:50:48;6.80;;;3.42;;
72060;SDS011;59925;52.136;5.420;2024-02-26T11:56:12;5.65;;;3.40;;
72060;SDS011;59925;52.136;5.420;2024-02-26T11:58:58;6.37;;;3.30;;
72060;SDS011;59925;52.136;5.420;2024-02-26T12:04:21;6.97;;;3.85;;
72060;SDS011;59925;52.136;5.420;2024-02-26T12:06:53;7.20;;;3.50;;
72060;SDS011;59925;52.136;5.420;2024-02-26T12:09:38;6.75;;;3.70;;
72060;SDS011;59925;52.136;5.420;2024-02-26T12:12:07;7.60;;;3.93;;
72060;SDS011;59925;52.136;5.420;2024-02-26T12:14:39;6.38;;;3.58;;
72060;SDS011;59925;52.136;5.420;2024-02-26T12:17:20;6.47;;;3.75;;
72060;SDS011;59925;52.136;5.420;2024-02-26T12:19:48;6.82;;;3.28;;
72060;SDS011;59925;52.136;5.420;2024-02-26T12:22:16;6.95;;;3.72;;
72060;SDS011;59925;52.136;5.420;2024-02-26T12:24:43;6.17;;;3.57;;
72060;SDS011;59925;52.136;5.420;2024-02-26T12:27:10;6.40;;;3.50;;
72060;SDS011;59925;52.136;5.420;2024-02-26T12:29:36;6.43;;;3.38;;
72060;SDS011;59925;52.136;5.420;2024-02-26T12:32:04;7.00;;;3.55;;
72060;SDS011;59925;52.136;5.420;2024-02-26T12:34:33;5.68;;;3.17;;
72060;SDS011;59925;52.136;5.420;2024-02-26T12:37:00;5.50;;;3.30;;
72060;SDS011;59925;52.136;5.420;2024-02-26T12:39:27;7.47;;;3.28;;
72060;SDS011;59925;52.136;5.420;2024-02-26T12:41:55;5.97;;;3.50;;
72060;SDS011;59925;52.136;5.420;2024-02-26T12:44:25;7.85;;;3.20;;
72060;SDS011;59925;52.136;5.420;2024-02-26T12:46:59;5.65;;;3.08;;
72060;SDS011;59925;52.136;5.420;2024-02-26T12:49:27;5.97;;;3.40;;
72060;SDS011;59925;52.136;5.420;2024-02-26T12:51:53;5.53;;;3.05;;
72060;SDS011;59925;52.136;5.420;2024-02-26T12:54:21;6.20;;;3.10;;
72060;SDS011;59925;52.136;5.420;2024-02-26T12:56:48;10.05;;;3.67;;
72060;SDS011;59925;52.136;5.420;2024-02-26T12:59:15;6.68;;;2.97;;
72060;SDS011;59925;52.136;5.420;2024-02-26T13:01:41;6.03;;;3.33;;
72060;SDS011;59925;52.136;5.420;2024-02-26T13:04:08;4.97;;;2.90;;
72060;SDS011;59925;52.136;5.420;2024-02-26T13:06:36;6.25;;;3.65;;
72060;SDS011;59925;52.136;5.420;2024-02-26T13:09:03;6.75;;;3.20;;
72060;SDS011;59925;52.136;5.420;2024-02-26T13:11:30;5.80;;;3.00;;
72060;SDS011;59925;52.136;5.420;2024-02-26T13:13:57;5.70;;;3.10;;
72060;SDS011;59925;52.136;5.420;2024-02-26T13:16:24;7.30;;;3.47;;
72060;SDS011;59925;52.136;5.420;2024-02-26T13:18:51;5.78;;;3.25;;
72060;SDS011;59925;52.136;5.420;2024-02-26T13:21:18;6.93;;;4.00;;
72060;SDS011;59925;52.136;5.420;2024-02-26T13:23:48;7.72;;;3.65;;
72060;SDS011;59925;52.136;5.420;2024-02-26T13:26:21;6.60;;;3.40;;
72060;SDS011;59925;52.136;5.420;2024-02-26T13:28:59;8.63;;;3.42;;
72060;SDS011;59925;52.136;5.420;2024-02-26T13:31:27;6.50;;;3.38;;
72060;SDS011;59925;52.136;5.420;2024-02-26T13:33:54;7.97;;;3.30;;
72060;SDS011;59925;52.136;5.420;2024-02-26T13:36:22;5.28;;;2.92;;
72060;SDS011;59925;52.136;5.420;2024-02-26T13:38:53;6.73;;;3.17;;
72060;SDS011;59925;52.136;5.420;2024-02-26T13:41:21;6.18;;;3.00;;
72060;SDS011;59925;52.136;5.420;2024-02-26T13:43:48;7.63;;;3.88;;
72060;SDS011;59925;52.136;5.420;2024-02-26T13:46:16;5.57;;;2.97;;
72060;SDS011;59925;52.136;5.420;2024-02-26T13:48:43;5.63;;;3.00;;
72060;SDS011;59925;52.136;5.420;2024-02-26T13:51:10;5.90;;;3.00;;
72060;SDS011;59925;52.136;5.420;2024-02-26T13:53:36;6.00;;;2.65;;
72060;SDS011;59925;52.136;5.420;2024-02-26T13:56:03;7.38;;;3.47;;
72060;SDS011;59925;52.136;5.420;2024-02-26T13:58:31;5.38;;;3.60;;
72060;SDS011;59925;52.136;5.420;2024-02-26T14:00:58;5.43;;;3.45;;
72060;SDS011;59925;52.136;5.420;2024-02-26T14:03:26;5.50;;;2.93;;
72060;SDS011;59925;52.136;5.420;2024-02-26T14:05:52;7.75;;;2.97;;
72060;SDS011;59925;52.136;5.420;2024-02-26T14:08:19;4.75;;;2.83;;
72060;SDS011;59925;52.136;5.420;2024-02-26T14:10:47;6.28;;;2.65;;
72060;SDS011;59925;52.136;5.420;2024-02-26T14:13:13;5.50;;;3.25;;
72060;SDS011;59925;52.136;5.420;2024-02-26T14:15:40;6.20;;;2.93;;
72060;SDS011;59925;52.136;5.420;2024-02-26T14:18:07;7.22;;;3.33;;
72060;SDS011;59925;52.136;5.420;2024-02-26T14:20:34;8.15;;;2.97;;
72060;SDS011;59925;52.136;5.420;2024-02-26T14:23:01;4.72;;;2.40;;
72060;SDS011;59925;52.136;5.420;2024-02-26T14:25:27;6.03;;;2.90;;
72060;SDS011;59925;52.136;5.420;2024-02-26T14:27:57;4.03;;;2.57;;
72060;SDS011;59925;52.136;5.420;2024-02-26T14:30:25;7.63;;;2.80;;
72060;SDS011;59925;52.136;5.420;2024-02-26T14:32:52;5.32;;;2.22;;
72060;SDS011;59925;52.136;5.420;2024-02-26T14:35:19;6.07;;;2.45;;
72060;SDS011;59925;52.136;5.420;2024-02-26T14:37:46;5.03;;;2.90;;
72060;SDS011;59925;52.136;5.420;2024-02-26T14:40:15;4.47;;;2.40;;
72060;SDS011;59925;52.136;5.420;2024-02-26T14:42:42;3.35;;;2.20;;
72060;SDS011;59925;52.136;5.420;2024-02-26T14:45:09;6.90;;;2.40;;
72060;SDS011;59925;52.136;5.420;2024-02-26T14:47:36;4.85;;;2.22;;
72060;SDS011;59925;52.136;5.420;2024-02-26T14:50:02;3.70;;;2.22;;
72060;SDS011;59925;52.136;5.420;2024-02-26T14:52:30;3.60;;;2.30;;
72060;SDS011;59925;52.136;5.420;2024-02-26T14:54:57;3.85;;;2.40;;